¿Dónde está Evora en Portugal?

Evora es una región en Portugal!

Buscar el nombre de una ciudad:

Evoredouleu, Evor, Evormakok, Évora Airport, Évora Monte

Aquí usted encontrará la ubicación de Evora en un mapa.
Para ver cómo se ve en la actualidad, a continuación hay algunas fotos de la región con cámaras web en línea.
También puede encontrar la distancia a las principales ciudades de la región y para las ciudades en el resto de Portugal.

Todos los lugares del mundo llamados .

new

¿Dónde está Evora en el mapa?


Webcams cerca de Evora

Comporta: Distrito de - Praia do Carvalhal°.


Comporta: Distrito de - Praia do Carvalhal° - El día
Actuales
Comporta: Distrito de - Praia do Carvalhal° - Actuales

Benavente > North-East: AIrport, METAR: BENAV 180005Z 36004KT 17/14 Q1015.


Benavente > North-East: AIrport, METAR: BENAV 180005Z 36004KT 17/14 Q1015 - El día
Actuales
Benavente > North-East: AIrport, METAR: BENAV 180005Z 36004KT 17/14 Q1015 - Actuales

Abrantes > South-West: Centro Cidade.


Abrantes > South-West: Centro Cidade - El día
Actuales
Abrantes > South-West: Centro Cidade - Actuales

Webcams provided by webcams.travel

Distancias

¿Dónde está Evora en relación con otros lugares?


Top 10 ciudades en Portugal y la distancia de Evora.

Ciudad # Poblaciónkmmillas
Lisbon151779811471
Porto2249630285177
Amadora317885612477
Braga4121393327203
Setúbal51171099559
Coimbra6106580180112
Queluz710339812678
Funchal8980411059658
Vila Nova de Gaia970810283176
Loures106623011974

Alertas y advertencias en Portugal

Asesoramiento e información sobre viajes y seguridad en Portugal

Con una advertencia de viaje, los turistas pueden ser informados de los riesgos de seguridad durante las vacaciones o de viaje en un país extranjero.Estar informado acerca de los riesgos de secuestro, robo a mano armada, atentados, catástrofes naturales o guerras. No saben qué áreas son seguras en Portugal. Estar alerta, o evitar ciertas áreas cuando está de vacaciones en Portugal.

Alertas y advertencias



Información de viajes Portugal

Información sobre documentos de viaje, solicitudes de visados y el costo de una visa.
Información de Contacto embajadas en Portugal.
Los diferentes tipos de seguro de viaje.

Información de viajes